sensor_id;sensor_type;location;lat;lon;timestamp;P1;durP1;ratioP1;P2;durP2;ratioP2
68010;SDS011;54794;48.348;7.878;2023-03-26T00:01:27;2.58;;;0.65;;
68010;SDS011;54794;48.348;7.878;2023-03-26T00:03:58;1.33;;;0.35;;
68010;SDS011;54794;48.348;7.878;2023-03-26T00:06:27;1.58;;;0.30;;
68010;SDS011;54794;48.348;7.878;2023-03-26T00:09:00;0.90;;;0.30;;
68010;SDS011;54794;48.348;7.878;2023-03-26T00:11:27;1.48;;;0.47;;
68010;SDS011;54794;48.348;7.878;2023-03-26T00:13:55;0.63;;;0.30;;
68010;SDS011;54794;48.348;7.878;2023-03-26T00:16:24;2.53;;;0.40;;
68010;SDS011;54794;48.348;7.878;2023-03-26T00:18:54;3.05;;;0.90;;
68010;SDS011;54794;48.348;7.878;2023-03-26T00:21:23;0.40;;;0.32;;
68010;SDS011;54794;48.348;7.878;2023-03-26T00:23:57;1.65;;;0.65;;
68010;SDS011;54794;48.348;7.878;2023-03-26T00:26:30;0.90;;;0.38;;
68010;SDS011;54794;48.348;7.878;2023-03-26T00:29:03;0.90;;;0.32;;
68010;SDS011;54794;48.348;7.878;2023-03-26T00:31:32;3.65;;;0.40;;
68010;SDS011;54794;48.348;7.878;2023-03-26T00:34:00;1.35;;;0.55;;
68010;SDS011;54794;48.348;7.878;2023-03-26T00:36:29;1.00;;;0.40;;
68010;SDS011;54794;48.348;7.878;2023-03-26T00:38:56;2.67;;;0.32;;
68010;SDS011;54794;48.348;7.878;2023-03-26T00:41:23;1.88;;;0.40;;
68010;SDS011;54794;48.348;7.878;2023-03-26T00:43:53;2.08;;;0.47;;
68010;SDS011;54794;48.348;7.878;2023-03-26T00:46:23;0.77;;;0.30;;
68010;SDS011;54794;48.348;7.878;2023-03-26T00:48:52;0.95;;;0.30;;
68010;SDS011;54794;48.348;7.878;2023-03-26T00:51:19;1.55;;;0.30;;
68010;SDS011;54794;48.348;7.878;2023-03-26T00:53:47;1.00;;;0.38;;
68010;SDS011;54794;48.348;7.878;2023-03-26T00:56:16;2.50;;;0.52;;
68010;SDS011;54794;48.348;7.878;2023-03-26T00:58:44;2.28;;;0.50;;
68010;SDS011;54794;48.348;7.878;2023-03-26T01:01:13;1.65;;;0.47;;
68010;SDS011;54794;48.348;7.878;2023-03-26T01:03:46;1.00;;;0.50;;
68010;SDS011;54794;48.348;7.878;2023-03-26T01:06:33;2.03;;;0.50;;
68010;SDS011;54794;48.348;7.878;2023-03-26T01:09:06;1.63;;;0.55;;
68010;SDS011;54794;48.348;7.878;2023-03-26T01:11:47;1.60;;;0.32;;
68010;SDS011;54794;48.348;7.878;2023-03-26T01:14:19;2.08;;;0.50;;
68010;SDS011;54794;48.348;7.878;2023-03-26T01:16:51;4.55;;;0.60;;
68010;SDS011;54794;48.348;7.878;2023-03-26T01:19:29;1.15;;;0.40;;
68010;SDS011;54794;48.348;7.878;2023-03-26T01:22:07;2.40;;;0.40;;
68010;SDS011;54794;48.348;7.878;2023-03-26T01:24:38;1.88;;;0.40;;
68010;SDS011;54794;48.348;7.878;2023-03-26T01:40:57;2.45;;;0.82;;
68010;SDS011;54794;48.348;7.878;2023-03-26T01:44:05;1.77;;;0.30;;
68010;SDS011;54794;48.348;7.878;2023-03-26T01:46:36;0.93;;;0.57;;
68010;SDS011;54794;48.348;7.878;2023-03-26T01:49:05;2.78;;;0.47;;
68010;SDS011;54794;48.348;7.878;2023-03-26T01:51:39;1.38;;;0.30;;
68010;SDS011;54794;48.348;7.878;2023-03-26T01:54:09;1.88;;;0.50;;
68010;SDS011;54794;48.348;7.878;2023-03-26T02:00:14;2.90;;;0.43;;
68010;SDS011;54794;48.348;7.878;2023-03-26T02:03:12;1.10;;;0.20;;
68010;SDS011;54794;48.348;7.878;2023-03-26T02:09:10;0.95;;;0.40;;
68010;SDS011;54794;48.348;7.878;2023-03-26T02:11:49;1.42;;;0.38;;
68010;SDS011;54794;48.348;7.878;2023-03-26T02:14:16;1.77;;;0.30;;
68010;SDS011;54794;48.348;7.878;2023-03-26T02:16:43;1.48;;;0.30;;
68010;SDS011;54794;48.348;7.878;2023-03-26T02:19:12;1.00;;;0.35;;
68010;SDS011;54794;48.348;7.878;2023-03-26T02:21:46;0.68;;;0.35;;
68010;SDS011;54794;48.348;7.878;2023-03-26T02:24:17;3.72;;;0.50;;
68010;SDS011;54794;48.348;7.878;2023-03-26T02:26:45;1.88;;;0.45;;
68010;SDS011;54794;48.348;7.878;2023-03-26T02:29:12;1.13;;;0.40;;
68010;SDS011;54794;48.348;7.878;2023-03-26T02:31:45;1.10;;;0.38;;
68010;SDS011;54794;48.348;7.878;2023-03-26T02:34:16;0.85;;;0.30;;
68010;SDS011;54794;48.348;7.878;2023-03-26T02:36:43;1.42;;;0.40;;
68010;SDS011;54794;48.348;7.878;2023-03-26T02:39:10;1.17;;;0.40;;
68010;SDS011;54794;48.348;7.878;2023-03-26T02:41:39;1.35;;;0.50;;
68010;SDS011;54794;48.348;7.878;2023-03-26T02:44:06;1.33;;;0.32;;
68010;SDS011;54794;48.348;7.878;2023-03-26T02:46:33;2.05;;;0.45;;
68010;SDS011;54794;48.348;7.878;2023-03-26T02:49:00;3.38;;;0.73;;
68010;SDS011;54794;48.348;7.878;2023-03-26T02:51:27;3.20;;;0.60;;
68010;SDS011;54794;48.348;7.878;2023-03-26T02:53:54;2.05;;;0.50;;
68010;SDS011;54794;48.348;7.878;2023-03-26T02:56:21;2.72;;;0.40;;
68010;SDS011;54794;48.348;7.878;2023-03-26T02:58:48;1.55;;;0.50;;
68010;SDS011;54794;48.348;7.878;2023-03-26T03:01:14;2.45;;;0.70;;
68010;SDS011;54794;48.348;7.878;2023-03-26T03:03:43;2.05;;;0.60;;
68010;SDS011;54794;48.348;7.878;2023-03-26T03:06:12;2.00;;;0.60;;
68010;SDS011;54794;48.348;7.878;2023-03-26T03:08:44;2.25;;;0.50;;
68010;SDS011;54794;48.348;7.878;2023-03-26T03:11:16;1.48;;;0.50;;
68010;SDS011;54794;48.348;7.878;2023-03-26T03:13:49;2.55;;;0.52;;
68010;SDS011;54794;48.348;7.878;2023-03-26T03:16:17;0.98;;;0.30;;
68010;SDS011;54794;48.348;7.878;2023-03-26T03:21:20;2.97;;;0.40;;
68010;SDS011;54794;48.348;7.878;2023-03-26T03:23:55;4.07;;;0.43;;
68010;SDS011;54794;48.348;7.878;2023-03-26T03:26:25;1.33;;;0.40;;
68010;SDS011;54794;48.348;7.878;2023-03-26T03:28:55;6.07;;;0.40;;
68010;SDS011;54794;48.348;7.878;2023-03-26T03:31:23;2.20;;;0.57;;
68010;SDS011;54794;48.348;7.878;2023-03-26T03:33:51;1.40;;;0.43;;
68010;SDS011;54794;48.348;7.878;2023-03-26T03:36:19;2.10;;;0.52;;
68010;SDS011;54794;48.348;7.878;2023-03-26T03:38:48;1.98;;;0.50;;
68010;SDS011;54794;48.348;7.878;2023-03-26T03:41:16;0.95;;;0.32;;
68010;SDS011;54794;48.348;7.878;2023-03-26T03:43:44;2.30;;;0.40;;
68010;SDS011;54794;48.348;7.878;2023-03-26T03:46:11;1.05;;;0.50;;
68010;SDS011;54794;48.348;7.878;2023-03-26T03:48:38;0.77;;;0.30;;
68010;SDS011;54794;48.348;7.878;2023-03-26T03:51:05;2.25;;;0.63;;
68010;SDS011;54794;48.348;7.878;2023-03-26T03:53:32;1.05;;;0.40;;
68010;SDS011;54794;48.348;7.878;2023-03-26T03:56:02;1.60;;;0.52;;
68010;SDS011;54794;48.348;7.878;2023-03-26T03:58:35;0.75;;;0.38;;
68010;SDS011;54794;48.348;7.878;2023-03-26T04:01:02;2.75;;;0.55;;
68010;SDS011;54794;48.348;7.878;2023-03-26T04:03:29;1.48;;;0.38;;
68010;SDS011;54794;48.348;7.878;2023-03-26T04:05:59;1.88;;;0.43;;
68010;SDS011;54794;48.348;7.878;2023-03-26T04:08:26;1.27;;;0.40;;
68010;SDS011;54794;48.348;7.878;2023-03-26T04:10:53;3.53;;;0.60;;
68010;SDS011;54794;48.348;7.878;2023-03-26T04:13:20;0.88;;;0.30;;
68010;SDS011;54794;48.348;7.878;2023-03-26T04:15:47;1.73;;;0.40;;
68010;SDS011;54794;48.348;7.878;2023-03-26T04:18:14;2.22;;;0.50;;
68010;SDS011;54794;48.348;7.878;2023-03-26T04:20:42;1.17;;;0.40;;
68010;SDS011;54794;48.348;7.878;2023-03-26T04:23:13;1.10;;;0.40;;
68010;SDS011;54794;48.348;7.878;2023-03-26T04:25:44;0.70;;;0.30;;
68010;SDS011;54794;48.348;7.878;2023-03-26T04:28:19;1.35;;;0.30;;
68010;SDS011;54794;48.348;7.878;2023-03-26T04:30:56;1.75;;;0.47;;
68010;SDS011;54794;48.348;7.878;2023-03-26T04:33:27;0.82;;;0.30;;
68010;SDS011;54794;48.348;7.878;2023-03-26T04:35:57;1.50;;;0.30;;
68010;SDS011;54794;48.348;7.878;2023-03-26T04:38:29;0.82;;;0.32;;
68010;SDS011;54794;48.348;7.878;2023-03-26T04:41:04;1.10;;;0.30;;
68010;SDS011;54794;48.348;7.878;2023-03-26T04:43:33;1.00;;;0.40;;
68010;SDS011;54794;48.348;7.878;2023-03-26T04:46:12;1.30;;;0.43;;
68010;SDS011;54794;48.348;7.878;2023-03-26T04:48:39;1.90;;;0.40;;
68010;SDS011;54794;48.348;7.878;2023-03-26T04:51:06;1.45;;;0.40;;
68010;SDS011;54794;48.348;7.878;2023-03-26T04:53:35;1.67;;;0.63;;
68010;SDS011;54794;48.348;7.878;2023-03-26T04:57:03;1.98;;;0.50;;
68010;SDS011;54794;48.348;7.878;2023-03-26T04:59:04;2.47;;;0.47;;
68010;SDS011;54794;48.348;7.878;2023-03-26T05:01:33;1.35;;;0.43;;
68010;SDS011;54794;48.348;7.878;2023-03-26T05:04:03;3.13;;;0.28;;
68010;SDS011;54794;48.348;7.878;2023-03-26T05:06:30;1.95;;;0.40;;
68010;SDS011;54794;48.348;7.878;2023-03-26T05:08:59;1.70;;;0.50;;
68010;SDS011;54794;48.348;7.878;2023-03-26T05:11:29;1.52;;;0.50;;
68010;SDS011;54794;48.348;7.878;2023-03-26T05:13:56;1.42;;;0.68;;
68010;SDS011;54794;48.348;7.878;2023-03-26T05:16:23;2.78;;;0.68;;
68010;SDS011;54794;48.348;7.878;2023-03-26T05:18:50;2.53;;;0.43;;
68010;SDS011;54794;48.348;7.878;2023-03-26T05:21:17;3.70;;;0.40;;
68010;SDS011;54794;48.348;7.878;2023-03-26T05:23:44;2.30;;;0.30;;
68010;SDS011;54794;48.348;7.878;2023-03-26T05:26:11;1.38;;;0.55;;
68010;SDS011;54794;48.348;7.878;2023-03-26T05:28:38;2.33;;;0.60;;
68010;SDS011;54794;48.348;7.878;2023-03-26T05:31:06;4.03;;;0.60;;
68010;SDS011;54794;48.348;7.878;2023-03-26T05:33:33;2.20;;;0.50;;
68010;SDS011;54794;48.348;7.878;2023-03-26T05:36:01;2.42;;;0.80;;
68010;SDS011;54794;48.348;7.878;2023-03-26T05:38:34;2.53;;;0.65;;
68010;SDS011;54794;48.348;7.878;2023-03-26T05:41:03;3.55;;;0.95;;
68010;SDS011;54794;48.348;7.878;2023-03-26T05:43:33;2.13;;;0.60;;
68010;SDS011;54794;48.348;7.878;2023-03-26T05:46:01;2.00;;;0.50;;
68010;SDS011;54794;48.348;7.878;2023-03-26T05:48:28;0.68;;;0.40;;
68010;SDS011;54794;48.348;7.878;2023-03-26T05:50:56;2.67;;;0.50;;
68010;SDS011;54794;48.348;7.878;2023-03-26T05:53:24;1.02;;;0.50;;
68010;SDS011;54794;48.348;7.878;2023-03-26T05:55:53;2.47;;;0.50;;
68010;SDS011;54794;48.348;7.878;2023-03-26T05:58:27;1.00;;;0.45;;
68010;SDS011;54794;48.348;7.878;2023-03-26T06:01:01;2.78;;;0.52;;
68010;SDS011;54794;48.348;7.878;2023-03-26T06:03:36;1.17;;;0.40;;
68010;SDS011;54794;48.348;7.878;2023-03-26T06:06:06;1.35;;;0.47;;
68010;SDS011;54794;48.348;7.878;2023-03-26T06:08:35;2.47;;;0.47;;
68010;SDS011;54794;48.348;7.878;2023-03-26T06:11:03;2.30;;;0.52;;
68010;SDS011;54794;48.348;7.878;2023-03-26T06:13:35;1.25;;;0.32;;
68010;SDS011;54794;48.348;7.878;2023-03-26T06:16:02;1.02;;;0.40;;
68010;SDS011;54794;48.348;7.878;2023-03-26T06:18:29;2.15;;;0.57;;
68010;SDS011;54794;48.348;7.878;2023-03-26T06:20:56;1.60;;;0.40;;
68010;SDS011;54794;48.348;7.878;2023-03-26T06:23:23;2.47;;;0.50;;
68010;SDS011;54794;48.348;7.878;2023-03-26T06:25:50;1.08;;;0.40;;
68010;SDS011;54794;48.348;7.878;2023-03-26T06:28:17;1.83;;;0.40;;
68010;SDS011;54794;48.348;7.878;2023-03-26T06:30:44;1.50;;;0.40;;
68010;SDS011;54794;48.348;7.878;2023-03-26T06:33:11;2.40;;;0.50;;
68010;SDS011;54794;48.348;7.878;2023-03-26T06:35:38;3.50;;;0.50;;
68010;SDS011;54794;48.348;7.878;2023-03-26T06:38:05;1.70;;;0.50;;
68010;SDS011;54794;48.348;7.878;2023-03-26T06:40:33;1.00;;;0.47;;
68010;SDS011;54794;48.348;7.878;2023-03-26T06:43:00;2.15;;;0.57;;
68010;SDS011;54794;48.348;7.878;2023-03-26T06:45:35;1.27;;;0.38;;
68010;SDS011;54794;48.348;7.878;2023-03-26T06:50:30;1.90;;;0.40;;
68010;SDS011;54794;48.348;7.878;2023-03-26T06:52:58;1.23;;;0.40;;
68010;SDS011;54794;48.348;7.878;2023-03-26T06:55:25;1.45;;;0.50;;
68010;SDS011;54794;48.348;7.878;2023-03-26T06:57:53;1.75;;;0.68;;
68010;SDS011;54794;48.348;7.878;2023-03-26T07:00:23;2.90;;;0.52;;
68010;SDS011;54794;48.348;7.878;2023-03-26T07:02:50;1.27;;;0.47;;
68010;SDS011;54794;48.348;7.878;2023-03-26T07:05:17;2.13;;;0.88;;
68010;SDS011;54794;48.348;7.878;2023-03-26T07:07:44;1.55;;;0.63;;
68010;SDS011;54794;48.348;7.878;2023-03-26T07:10:13;1.75;;;0.50;;
68010;SDS011;54794;48.348;7.878;2023-03-26T07:12:40;1.42;;;0.52;;
68010;SDS011;54794;48.348;7.878;2023-03-26T07:17:35;2.30;;;0.50;;
68010;SDS011;54794;48.348;7.878;2023-03-26T07:20:03;1.02;;;0.40;;
68010;SDS011;54794;48.348;7.878;2023-03-26T07:22:33;0.85;;;0.40;;
68010;SDS011;54794;48.348;7.878;2023-03-26T07:25:01;0.82;;;0.38;;
68010;SDS011;54794;48.348;7.878;2023-03-26T07:27:36;2.63;;;0.60;;
68010;SDS011;54794;48.348;7.878;2023-03-26T07:33:44;0.60;;;0.30;;
68010;SDS011;54794;48.348;7.878;2023-03-26T07:36:27;2.00;;;0.50;;
68010;SDS011;54794;48.348;7.878;2023-03-26T07:47:39;1.05;;;0.40;;
68010;SDS011;54794;48.348;7.878;2023-03-26T07:50:14;2.65;;;0.50;;
68010;SDS011;54794;48.348;7.878;2023-03-26T07:52:44;3.10;;;0.50;;
68010;SDS011;54794;48.348;7.878;2023-03-26T07:55:12;0.82;;;0.30;;
68010;SDS011;54794;48.348;7.878;2023-03-26T08:00:34;0.50;;;0.30;;
68010;SDS011;54794;48.348;7.878;2023-03-26T08:15:30;2.13;;;0.35;;
68010;SDS011;54794;48.348;7.878;2023-03-26T08:20:54;1.20;;;0.40;;
68010;SDS011;54794;48.348;7.878;2023-03-26T08:26:27;1.27;;;0.43;;
68010;SDS011;54794;48.348;7.878;2023-03-26T08:31:52;1.40;;;0.40;;
68010;SDS011;54794;48.348;7.878;2023-03-26T08:34:22;0.85;;;0.32;;
68010;SDS011;54794;48.348;7.878;2023-03-26T08:36:49;0.60;;;0.30;;
68010;SDS011;54794;48.348;7.878;2023-03-26T08:39:16;0.47;;;0.30;;
68010;SDS011;54794;48.348;7.878;2023-03-26T08:44:49;0.98;;;0.32;;
68010;SDS011;54794;48.348;7.878;2023-03-26T08:51:03;2.15;;;0.60;;
68010;SDS011;54794;48.348;7.878;2023-03-26T08:56:52;0.65;;;0.20;;
68010;SDS011;54794;48.348;7.878;2023-03-26T08:59:53;1.45;;;0.32;;
68010;SDS011;54794;48.348;7.878;2023-03-26T09:03:16;0.25;;;0.20;;
68010;SDS011;54794;48.348;7.878;2023-03-26T09:06:57;0.82;;;0.30;;
68010;SDS011;54794;48.348;7.878;2023-03-26T09:35:44;0.93;;;0.47;;
68010;SDS011;54794;48.348;7.878;2023-03-26T09:38:44;0.73;;;0.30;;
68010;SDS011;54794;48.348;7.878;2023-03-26T09:41:31;1.00;;;0.50;;
68010;SDS011;54794;48.348;7.878;2023-03-26T10:02:36;0.75;;;0.40;;
68010;SDS011;54794;48.348;7.878;2023-03-26T10:05:25;1.48;;;0.50;;
68010;SDS011;54794;48.348;7.878;2023-03-26T10:08:15;1.42;;;0.63;;
68010;SDS011;54794;48.348;7.878;2023-03-26T10:14:33;0.20;;;0.20;;
68010;SDS011;54794;48.348;7.878;2023-03-26T10:17:42;0.55;;;0.30;;
68010;SDS011;54794;48.348;7.878;2023-03-26T10:21:03;0.30;;;0.10;;
68010;SDS011;54794;48.348;7.878;2023-03-26T10:24:08;0.28;;;0.10;;
68010;SDS011;54794;48.348;7.878;2023-03-26T10:26:47;2.20;;;0.20;;
68010;SDS011;54794;48.348;7.878;2023-03-26T10:29:47;0.38;;;0.17;;
68010;SDS011;54794;48.348;7.878;2023-03-26T10:32:59;1.58;;;0.32;;
68010;SDS011;54794;48.348;7.878;2023-03-26T10:38:55;1.20;;;0.43;;
68010;SDS011;54794;48.348;7.878;2023-03-26T10:49:59;2.80;;;0.43;;
68010;SDS011;54794;48.348;7.878;2023-03-26T10:52:59;0.82;;;0.30;;
68010;SDS011;54794;48.348;7.878;2023-03-26T10:55:52;1.85;;;0.43;;
68010;SDS011;54794;48.348;7.878;2023-03-26T10:58:42;1.55;;;0.40;;
68010;SDS011;54794;48.348;7.878;2023-03-26T11:01:21;0.30;;;0.20;;
68010;SDS011;54794;48.348;7.878;2023-03-26T11:16:57;2.25;;;0.60;;
68010;SDS011;54794;48.348;7.878;2023-03-26T11:22:21;2.15;;;0.50;;
68010;SDS011;54794;48.348;7.878;2023-03-26T11:33:31;1.55;;;0.40;;
68010;SDS011;54794;48.348;7.878;2023-03-26T11:36:12;1.10;;;0.38;;
68010;SDS011;54794;48.348;7.878;2023-03-26T11:38:49;0.88;;;0.32;;
68010;SDS011;54794;48.348;7.878;2023-03-26T11:41:21;0.57;;;0.20;;
68010;SDS011;54794;48.348;7.878;2023-03-26T11:43:59;2.38;;;0.40;;
68010;SDS011;54794;48.348;7.878;2023-03-26T11:46:35;1.55;;;0.30;;
68010;SDS011;54794;48.348;7.878;2023-03-26T11:49:08;0.93;;;0.20;;
68010;SDS011;54794;48.348;7.878;2023-03-26T11:51:41;0.52;;;0.20;;
68010;SDS011;54794;48.348;7.878;2023-03-26T11:54:12;1.98;;;0.50;;
68010;SDS011;54794;48.348;7.878;2023-03-26T11:56:59;1.38;;;0.57;;
68010;SDS011;54794;48.348;7.878;2023-03-26T12:02:38;1.13;;;0.50;;
68010;SDS011;54794;48.348;7.878;2023-03-26T12:05:10;2.10;;;0.32;;
68010;SDS011;54794;48.348;7.878;2023-03-26T12:15:46;0.90;;;0.30;;
68010;SDS011;54794;48.348;7.878;2023-03-26T12:18:33;0.65;;;0.20;;
68010;SDS011;54794;48.348;7.878;2023-03-26T12:21:04;0.52;;;0.20;;
68010;SDS011;54794;48.348;7.878;2023-03-26T12:26:36;1.85;;;0.17;;
68010;SDS011;54794;48.348;7.878;2023-03-26T12:29:16;0.88;;;0.32;;
68010;SDS011;54794;48.348;7.878;2023-03-26T12:31:47;1.10;;;0.30;;
68010;SDS011;54794;48.348;7.878;2023-03-26T12:34:23;1.05;;;0.40;;
68010;SDS011;54794;48.348;7.878;2023-03-26T12:37:00;0.73;;;0.60;;
68010;SDS011;54794;48.348;7.878;2023-03-26T12:39:34;1.15;;;0.40;;
68010;SDS011;54794;48.348;7.878;2023-03-26T12:42:29;1.17;;;0.30;;
68010;SDS011;54794;48.348;7.878;2023-03-26T12:45:22;0.90;;;0.30;;
68010;SDS011;54794;48.348;7.878;2023-03-26T12:48:03;0.85;;;0.30;;
68010;SDS011;54794;48.348;7.878;2023-03-26T12:50:34;0.70;;;0.20;;
68010;SDS011;54794;48.348;7.878;2023-03-26T13:11:37;1.15;;;0.50;;
68010;SDS011;54794;48.348;7.878;2023-03-26T13:18:07;1.10;;;0.30;;
68010;SDS011;54794;48.348;7.878;2023-03-26T13:21:16;0.98;;;0.35;;
68010;SDS011;54794;48.348;7.878;2023-03-26T13:24:16;0.98;;;0.30;;
68010;SDS011;54794;48.348;7.878;2023-03-26T13:29:21;0.98;;;0.40;;
68010;SDS011;54794;48.348;7.878;2023-03-26T13:37:58;2.30;;;0.35;;
68010;SDS011;54794;48.348;7.878;2023-03-26T13:40:42;1.10;;;0.38;;
68010;SDS011;54794;48.348;7.878;2023-03-26T13:51:42;0.73;;;0.30;;
68010;SDS011;54794;48.348;7.878;2023-03-26T13:57:31;0.55;;;0.25;;
68010;SDS011;54794;48.348;7.878;2023-03-26T14:00:14;0.57;;;0.22;;
68010;SDS011;54794;48.348;7.878;2023-03-26T14:02:49;2.50;;;0.32;;
68010;SDS011;54794;48.348;7.878;2023-03-26T14:05:40;2.58;;;0.30;;
68010;SDS011;54794;48.348;7.878;2023-03-26T14:11:01;0.70;;;0.10;;
68010;SDS011;54794;48.348;7.878;2023-03-26T14:19:29;1.10;;;0.20;;
68010;SDS011;54794;48.348;7.878;2023-03-26T14:31:44;0.00;;;0.00;;
68010;SDS011;54794;48.348;7.878;2023-03-26T14:47:25;0.30;;;0.17;;
68010;SDS011;54794;48.348;7.878;2023-03-26T14:53:13;0.20;;;0.10;;
68010;SDS011;54794;48.348;7.878;2023-03-26T15:32:12;1.77;;;0.70;;
68010;SDS011;54794;48.348;7.878;2023-03-26T15:36:11;1.60;;;0.68;;
68010;SDS011;54794;48.348;7.878;2023-03-26T15:42:13;0.47;;;0.20;;
68010;SDS011;54794;48.348;7.878;2023-03-26T15:53:15;0.80;;;0.57;;
68010;SDS011;54794;48.348;7.878;2023-03-26T16:04:54;0.63;;;0.52;;
68010;SDS011;54794;48.348;7.878;2023-03-26T16:10:40;1.80;;;0.70;;
68010;SDS011;54794;48.348;7.878;2023-03-26T16:13:32;0.95;;;0.57;;
68010;SDS011;54794;48.348;7.878;2023-03-26T16:18:33;2.92;;;1.40;;
68010;SDS011;54794;48.348;7.878;2023-03-26T16:29:16;1.40;;;0.82;;
68010;SDS011;54794;48.348;7.878;2023-03-26T16:31:58;0.60;;;0.32;;
68010;SDS011;54794;48.348;7.878;2023-03-26T16:37:48;0.98;;;0.40;;
68010;SDS011;54794;48.348;7.878;2023-03-26T16:40:31;0.60;;;0.30;;
68010;SDS011;54794;48.348;7.878;2023-03-26T16:51:47;3.13;;;1.83;;
68010;SDS011;54794;48.348;7.878;2023-03-26T17:00:04;1.08;;;0.73;;
68010;SDS011;54794;48.348;7.878;2023-03-26T17:06:22;0.98;;;0.50;;
68010;SDS011;54794;48.348;7.878;2023-03-26T17:24:16;1.98;;;1.00;;
68010;SDS011;54794;48.348;7.878;2023-03-26T17:27:19;1.70;;;0.70;;
68010;SDS011;54794;48.348;7.878;2023-03-26T17:39:20;1.00;;;0.50;;
68010;SDS011;54794;48.348;7.878;2023-03-26T17:44:53;0.80;;;0.35;;
68010;SDS011;54794;48.348;7.878;2023-03-26T17:50:06;1.20;;;0.57;;
68010;SDS011;54794;48.348;7.878;2023-03-26T17:52:50;1.00;;;0.60;;
68010;SDS011;54794;48.348;7.878;2023-03-26T17:55:29;0.93;;;0.50;;
68010;SDS011;54794;48.348;7.878;2023-03-26T17:58:04;0.95;;;0.47;;
68010;SDS011;54794;48.348;7.878;2023-03-26T18:00:48;0.63;;;0.40;;
68010;SDS011;54794;48.348;7.878;2023-03-26T18:03:29;0.95;;;0.50;;
68010;SDS011;54794;48.348;7.878;2023-03-26T18:06:07;0.93;;;0.32;;
68010;SDS011;54794;48.348;7.878;2023-03-26T18:08:55;0.60;;;0.50;;
68010;SDS011;54794;48.348;7.878;2023-03-26T18:17:37;1.13;;;0.85;;
68010;SDS011;54794;48.348;7.878;2023-03-26T18:20:20;1.08;;;0.57;;
68010;SDS011;54794;48.348;7.878;2023-03-26T18:22:52;1.10;;;0.57;;
68010;SDS011;54794;48.348;7.878;2023-03-26T18:25:22;0.80;;;0.50;;
68010;SDS011;54794;48.348;7.878;2023-03-26T18:27:54;0.68;;;0.50;;
68010;SDS011;54794;48.348;7.878;2023-03-26T18:30:22;0.40;;;0.30;;
68010;SDS011;54794;48.348;7.878;2023-03-26T18:32:53;0.80;;;0.50;;
68010;SDS011;54794;48.348;7.878;2023-03-26T18:35:39;0.65;;;0.50;;
68010;SDS011;54794;48.348;7.878;2023-03-26T18:38:23;1.85;;;0.80;;
68010;SDS011;54794;48.348;7.878;2023-03-26T18:41:09;1.20;;;0.70;;
68010;SDS011;54794;48.348;7.878;2023-03-26T18:44:56;3.13;;;1.48;;
68010;SDS011;54794;48.348;7.878;2023-03-26T18:48:09;4.68;;;1.90;;
68010;SDS011;54794;48.348;7.878;2023-03-26T18:51:28;3.10;;;1.60;;
68010;SDS011;54794;48.348;7.878;2023-03-26T18:57:54;4.15;;;2.15;;
68010;SDS011;54794;48.348;7.878;2023-03-26T19:00:51;3.22;;;1.83;;
68010;SDS011;54794;48.348;7.878;2023-03-26T19:04:01;2.60;;;1.67;;
68010;SDS011;54794;48.348;7.878;2023-03-26T19:10:46;2.20;;;1.50;;
68010;SDS011;54794;48.348;7.878;2023-03-26T19:14:27;2.83;;;1.75;;
68010;SDS011;54794;48.348;7.878;2023-03-26T19:17:54;1.85;;;1.17;;
68010;SDS011;54794;48.348;7.878;2023-03-26T19:30:51;0.60;;;0.45;;
68010;SDS011;54794;48.348;7.878;2023-03-26T19:37:30;1.00;;;0.50;;
68010;SDS011;54794;48.348;7.878;2023-03-26T19:44:49;0.35;;;0.30;;
68010;SDS011;54794;48.348;7.878;2023-03-26T19:47:18;1.10;;;0.65;;
68010;SDS011;54794;48.348;7.878;2023-03-26T19:56:23;1.30;;;0.70;;
68010;SDS011;54794;48.348;7.878;2023-03-26T19:59:37;1.08;;;0.50;;
68010;SDS011;54794;48.348;7.878;2023-03-26T20:06:56;1.08;;;0.43;;
68010;SDS011;54794;48.348;7.878;2023-03-26T20:10:08;0.80;;;0.50;;
68010;SDS011;54794;48.348;7.878;2023-03-26T20:13:26;1.02;;;0.47;;
68010;SDS011;54794;48.348;7.878;2023-03-26T20:16:52;0.85;;;0.60;;
68010;SDS011;54794;48.348;7.878;2023-03-26T20:20:36;1.00;;;0.68;;
68010;SDS011;54794;48.348;7.878;2023-03-26T20:23:29;1.60;;;0.65;;
68010;SDS011;54794;48.348;7.878;2023-03-26T20:26:48;1.13;;;0.50;;
68010;SDS011;54794;48.348;7.878;2023-03-26T20:33:38;2.13;;;0.80;;
68010;SDS011;54794;48.348;7.878;2023-03-26T20:36:45;0.70;;;0.50;;
68010;SDS011;54794;48.348;7.878;2023-03-26T20:39:13;0.90;;;0.57;;
68010;SDS011;54794;48.348;7.878;2023-03-26T20:41:44;0.70;;;0.40;;
68010;SDS011;54794;48.348;7.878;2023-03-26T20:44:14;1.05;;;0.60;;
68010;SDS011;54794;48.348;7.878;2023-03-26T20:46:45;1.27;;;0.60;;
68010;SDS011;54794;48.348;7.878;2023-03-26T20:49:15;2.20;;;0.70;;
68010;SDS011;54794;48.348;7.878;2023-03-26T20:51:43;1.45;;;0.57;;
68010;SDS011;54794;48.348;7.878;2023-03-26T20:54:16;1.08;;;0.60;;
68010;SDS011;54794;48.348;7.878;2023-03-26T20:56:47;0.80;;;0.60;;
68010;SDS011;54794;48.348;7.878;2023-03-26T20:59:16;0.70;;;0.50;;
68010;SDS011;54794;48.348;7.878;2023-03-26T21:01:52;0.95;;;0.60;;
68010;SDS011;54794;48.348;7.878;2023-03-26T21:04:22;0.70;;;0.40;;
68010;SDS011;54794;48.348;7.878;2023-03-26T21:06:52;0.80;;;0.50;;
68010;SDS011;54794;48.348;7.878;2023-03-26T21:09:29;0.80;;;0.40;;
68010;SDS011;54794;48.348;7.878;2023-03-26T21:15:53;2.45;;;0.40;;
68010;SDS011;54794;48.348;7.878;2023-03-26T21:18:56;0.80;;;0.40;;
68010;SDS011;54794;48.348;7.878;2023-03-26T21:29:07;1.23;;;0.32;;
68010;SDS011;54794;48.348;7.878;2023-03-26T21:32:20;0.57;;;0.30;;
68010;SDS011;54794;48.348;7.878;2023-03-26T21:38:21;0.75;;;0.22;;
68010;SDS011;54794;48.348;7.878;2023-03-26T21:41:58;0.70;;;0.40;;
68010;SDS011;54794;48.348;7.878;2023-03-26T21:45:23;0.20;;;0.20;;
68010;SDS011;54794;48.348;7.878;2023-03-26T21:48:47;0.40;;;0.25;;
68010;SDS011;54794;48.348;7.878;2023-03-26T21:52:32;0.40;;;0.30;;
68010;SDS011;54794;48.348;7.878;2023-03-26T21:55:50;0.20;;;0.10;;
68010;SDS011;54794;48.348;7.878;2023-03-26T22:06:23;0.57;;;0.30;;
68010;SDS011;54794;48.348;7.878;2023-03-26T22:09:55;0.15;;;0.10;;
68010;SDS011;54794;48.348;7.878;2023-03-26T22:12:54;0.68;;;0.20;;
68010;SDS011;54794;48.348;7.878;2023-03-26T22:15:56;0.20;;;0.10;;
68010;SDS011;54794;48.348;7.878;2023-03-26T22:18:47;0.40;;;0.15;;
68010;SDS011;54794;48.348;7.878;2023-03-26T22:21:50;0.15;;;0.10;;
68010;SDS011;54794;48.348;7.878;2023-03-26T22:24:32;0.25;;;0.15;;
68010;SDS011;54794;48.348;7.878;2023-03-26T22:27:30;0.38;;;0.20;;
68010;SDS011;54794;48.348;7.878;2023-03-26T22:30:09;0.40;;;0.25;;
68010;SDS011;54794;48.348;7.878;2023-03-26T22:35:04;0.43;;;0.13;;
68010;SDS011;54794;48.348;7.878;2023-03-26T22:37:32;0.55;;;0.20;;
68010;SDS011;54794;48.348;7.878;2023-03-26T22:40:00;0.40;;;0.10;;
68010;SDS011;54794;48.348;7.878;2023-03-26T22:42:35;0.50;;;0.30;;
68010;SDS011;54794;48.348;7.878;2023-03-26T22:45:02;0.30;;;0.15;;
68010;SDS011;54794;48.348;7.878;2023-03-26T22:47:30;0.50;;;0.22;;
68010;SDS011;54794;48.348;7.878;2023-03-26T22:50:00;0.65;;;0.20;;
68010;SDS011;54794;48.348;7.878;2023-03-26T22:52:29;0.40;;;0.20;;
68010;SDS011;54794;48.348;7.878;2023-03-26T22:54:56;0.75;;;0.38;;
68010;SDS011;54794;48.348;7.878;2023-03-26T22:57:23;0.50;;;0.20;;
68010;SDS011;54794;48.348;7.878;2023-03-26T22:59:50;0.25;;;0.20;;
68010;SDS011;54794;48.348;7.878;2023-03-26T23:02:18;0.17;;;0.13;;
68010;SDS011;54794;48.348;7.878;2023-03-26T23:04:45;2.13;;;0.45;;
68010;SDS011;54794;48.348;7.878;2023-03-26T23:07:13;0.30;;;0.20;;
68010;SDS011;54794;48.348;7.878;2023-03-26T23:09:41;2.55;;;0.28;;
68010;SDS011;54794;48.348;7.878;2023-03-26T23:12:07;0.60;;;0.20;;
68010;SDS011;54794;48.348;7.878;2023-03-26T23:14:34;1.33;;;0.43;;
68010;SDS011;54794;48.348;7.878;2023-03-26T23:17:01;0.77;;;0.20;;